sensor_id;sensor_type;location;lat;lon;timestamp;P1;durP1;ratioP1;P2;durP2;ratioP2
26864;SDS011;40618;51.166;10.322;2023-06-22T00:00:53;4.03;;;3.22;;
26864;SDS011;40618;51.166;10.322;2023-06-22T00:03:19;5.40;;;3.50;;
26864;SDS011;40618;51.166;10.322;2023-06-22T00:05:48;3.85;;;3.03;;
26864;SDS011;40618;51.166;10.322;2023-06-22T00:08:14;4.10;;;2.95;;
26864;SDS011;40618;51.166;10.322;2023-06-22T00:10:41;4.35;;;3.10;;
26864;SDS011;40618;51.166;10.322;2023-06-22T00:13:07;3.00;;;2.67;;
26864;SDS011;40618;51.166;10.322;2023-06-22T00:15:34;4.38;;;3.20;;
26864;SDS011;40618;51.166;10.322;2023-06-22T00:18:02;3.40;;;3.10;;
26864;SDS011;40618;51.166;10.322;2023-06-22T00:20:28;3.35;;;2.90;;
26864;SDS011;40618;51.166;10.322;2023-06-22T00:22:55;3.97;;;2.95;;
26864;SDS011;40618;51.166;10.322;2023-06-22T00:25:21;2.90;;;2.53;;
26864;SDS011;40618;51.166;10.322;2023-06-22T00:27:47;3.70;;;3.13;;
26864;SDS011;40618;51.166;10.322;2023-06-22T00:30:14;3.75;;;3.00;;
26864;SDS011;40618;51.166;10.322;2023-06-22T00:32:41;2.80;;;2.50;;
26864;SDS011;40618;51.166;10.322;2023-06-22T00:35:08;2.95;;;2.65;;
26864;SDS011;40618;51.166;10.322;2023-06-22T00:37:35;3.60;;;2.70;;
26864;SDS011;40618;51.166;10.322;2023-06-22T00:40:02;3.65;;;2.72;;
26864;SDS011;40618;51.166;10.322;2023-06-22T00:42:29;3.95;;;3.30;;
26864;SDS011;40618;51.166;10.322;2023-06-22T00:44:55;3.40;;;2.75;;
26864;SDS011;40618;51.166;10.322;2023-06-22T00:47:21;3.13;;;2.83;;
26864;SDS011;40618;51.166;10.322;2023-06-22T00:49:47;3.15;;;2.85;;
26864;SDS011;40618;51.166;10.322;2023-06-22T00:52:19;3.97;;;2.55;;
26864;SDS011;40618;51.166;10.322;2023-06-22T00:54:54;4.03;;;3.25;;
26864;SDS011;40618;51.166;10.322;2023-06-22T00:57:21;3.40;;;2.65;;
26864;SDS011;40618;51.166;10.322;2023-06-22T00:59:53;3.88;;;2.90;;
26864;SDS011;40618;51.166;10.322;2023-06-22T01:02:19;3.10;;;2.80;;
26864;SDS011;40618;51.166;10.322;2023-06-22T01:04:45;2.95;;;2.65;;
26864;SDS011;40618;51.166;10.322;2023-06-22T01:07:33;3.42;;;2.75;;
26864;SDS011;40618;51.166;10.322;2023-06-22T01:10:16;3.10;;;2.80;;
26864;SDS011;40618;51.166;10.322;2023-06-22T01:13:01;4.20;;;2.75;;
26864;SDS011;40618;51.166;10.322;2023-06-22T01:15:49;3.30;;;2.88;;
26864;SDS011;40618;51.166;10.322;2023-06-22T01:18:25;3.17;;;2.67;;
26864;SDS011;40618;51.166;10.322;2023-06-22T01:20:56;4.68;;;2.75;;
26864;SDS011;40618;51.166;10.322;2023-06-22T01:23:29;2.78;;;2.45;;
26864;SDS011;40618;51.166;10.322;2023-06-22T01:29:10;4.25;;;3.08;;
26864;SDS011;40618;51.166;10.322;2023-06-22T01:31:39;3.37;;;3.00;;
26864;SDS011;40618;51.166;10.322;2023-06-22T01:34:09;4.13;;;3.42;;
26864;SDS011;40618;51.166;10.322;2023-06-22T01:36:37;3.92;;;2.85;;
26864;SDS011;40618;51.166;10.322;2023-06-22T01:39:04;3.67;;;3.38;;
26864;SDS011;40618;51.166;10.322;2023-06-22T01:41:34;3.45;;;3.15;;
26864;SDS011;40618;51.166;10.322;2023-06-22T01:44:03;3.20;;;2.90;;
26864;SDS011;40618;51.166;10.322;2023-06-22T01:46:34;3.97;;;3.15;;
26864;SDS011;40618;51.166;10.322;2023-06-22T01:49:02;4.22;;;3.53;;
26864;SDS011;40618;51.166;10.322;2023-06-22T01:51:29;5.18;;;3.85;;
26864;SDS011;40618;51.166;10.322;2023-06-22T01:53:55;3.95;;;3.30;;
26864;SDS011;40618;51.166;10.322;2023-06-22T01:56:21;4.68;;;3.50;;
26864;SDS011;40618;51.166;10.322;2023-06-22T02:01:43;4.47;;;3.65;;
26864;SDS011;40618;51.166;10.322;2023-06-22T02:04:20;5.25;;;3.55;;
26864;SDS011;40618;51.166;10.322;2023-06-22T02:06:51;3.60;;;3.30;;
26864;SDS011;40618;51.166;10.322;2023-06-22T02:09:22;3.70;;;3.40;;
26864;SDS011;40618;51.166;10.322;2023-06-22T02:11:52;5.00;;;3.70;;
26864;SDS011;40618;51.166;10.322;2023-06-22T02:14:21;3.88;;;3.25;;
26864;SDS011;40618;51.166;10.322;2023-06-22T02:16:49;4.10;;;3.40;;
26864;SDS011;40618;51.166;10.322;2023-06-22T02:19:16;4.22;;;3.22;;
26864;SDS011;40618;51.166;10.322;2023-06-22T02:24:12;3.60;;;3.03;;
26864;SDS011;40618;51.166;10.322;2023-06-22T02:26:38;4.32;;;3.35;;
26864;SDS011;40618;51.166;10.322;2023-06-22T02:29:07;3.85;;;3.50;;
26864;SDS011;40618;51.166;10.322;2023-06-22T02:31:33;3.45;;;3.15;;
26864;SDS011;40618;51.166;10.322;2023-06-22T02:33:59;3.80;;;3.20;;
26864;SDS011;40618;51.166;10.322;2023-06-22T02:36:25;5.18;;;3.75;;
26864;SDS011;40618;51.166;10.322;2023-06-22T02:38:52;4.25;;;3.72;;
26864;SDS011;40618;51.166;10.322;2023-06-22T02:41:21;3.67;;;3.10;;
26864;SDS011;40618;51.166;10.322;2023-06-22T02:43:46;4.03;;;3.40;;
26864;SDS011;40618;51.166;10.322;2023-06-22T02:46:13;4.00;;;3.60;;
26864;SDS011;40618;51.166;10.322;2023-06-22T02:48:42;3.47;;;2.65;;
26864;SDS011;40618;51.166;10.322;2023-06-22T02:51:08;2.90;;;2.60;;
26864;SDS011;40618;51.166;10.322;2023-06-22T02:53:34;3.78;;;3.38;;
26864;SDS011;40618;51.166;10.322;2023-06-22T02:56:03;3.83;;;2.75;;
26864;SDS011;40618;51.166;10.322;2023-06-22T02:58:31;3.20;;;2.67;;
26864;SDS011;40618;51.166;10.322;2023-06-22T03:01:05;3.90;;;3.47;;
26864;SDS011;40618;51.166;10.322;2023-06-22T03:03:31;6.00;;;3.35;;
26864;SDS011;40618;51.166;10.322;2023-06-22T03:05:56;3.38;;;3.08;;
26864;SDS011;40618;51.166;10.322;2023-06-22T03:08:22;8.05;;;3.28;;
26864;SDS011;40618;51.166;10.322;2023-06-22T03:10:48;4.63;;;3.20;;
26864;SDS011;40618;51.166;10.322;2023-06-22T03:13:13;5.03;;;3.70;;
26864;SDS011;40618;51.166;10.322;2023-06-22T03:15:39;3.63;;;3.15;;
26864;SDS011;40618;51.166;10.322;2023-06-22T03:18:04;4.22;;;2.97;;
26864;SDS011;40618;51.166;10.322;2023-06-22T03:20:30;3.65;;;3.33;;
26864;SDS011;40618;51.166;10.322;2023-06-22T03:22:58;4.78;;;3.40;;
26864;SDS011;40618;51.166;10.322;2023-06-22T03:25:24;3.58;;;3.28;;
26864;SDS011;40618;51.166;10.322;2023-06-22T03:27:50;3.45;;;3.08;;
26864;SDS011;40618;51.166;10.322;2023-06-22T03:30:15;4.65;;;3.40;;
26864;SDS011;40618;51.166;10.322;2023-06-22T03:32:41;3.50;;;2.90;;
26864;SDS011;40618;51.166;10.322;2023-06-22T03:35:08;4.50;;;3.33;;
26864;SDS011;40618;51.166;10.322;2023-06-22T03:37:34;5.63;;;3.42;;
26864;SDS011;40618;51.166;10.322;2023-06-22T03:40:00;4.93;;;3.63;;
26864;SDS011;40618;51.166;10.322;2023-06-22T03:42:25;5.95;;;3.22;;
26864;SDS011;40618;51.166;10.322;2023-06-22T03:44:51;3.50;;;3.20;;
26864;SDS011;40618;51.166;10.322;2023-06-22T03:47:17;4.28;;;3.40;;
26864;SDS011;40618;51.166;10.322;2023-06-22T03:49:43;7.65;;;3.85;;
26864;SDS011;40618;51.166;10.322;2023-06-22T03:52:09;4.70;;;3.63;;
26864;SDS011;40618;51.166;10.322;2023-06-22T03:54:35;4.70;;;3.50;;
26864;SDS011;40618;51.166;10.322;2023-06-22T03:57:01;3.90;;;3.50;;
26864;SDS011;40618;51.166;10.322;2023-06-22T03:59:27;4.32;;;3.72;;
26864;SDS011;40618;51.166;10.322;2023-06-22T04:01:53;4.05;;;3.50;;
26864;SDS011;40618;51.166;10.322;2023-06-22T04:04:19;3.53;;;3.22;;
26864;SDS011;40618;51.166;10.322;2023-06-22T04:06:45;4.70;;;3.63;;
26864;SDS011;40618;51.166;10.322;2023-06-22T04:09:10;4.97;;;3.63;;
26864;SDS011;40618;51.166;10.322;2023-06-22T04:11:36;6.07;;;3.70;;
26864;SDS011;40618;51.166;10.322;2023-06-22T04:14:02;4.00;;;3.58;;
26864;SDS011;40618;51.166;10.322;2023-06-22T04:16:28;4.25;;;3.85;;
26864;SDS011;40618;51.166;10.322;2023-06-22T04:18:53;4.10;;;3.70;;
26864;SDS011;40618;51.166;10.322;2023-06-22T04:21:19;3.83;;;3.42;;
26864;SDS011;40618;51.166;10.322;2023-06-22T04:23:45;5.15;;;4.00;;
26864;SDS011;40618;51.166;10.322;2023-06-22T04:26:11;3.95;;;3.55;;
26864;SDS011;40618;51.166;10.322;2023-06-22T04:28:38;3.50;;;3.20;;
26864;SDS011;40618;51.166;10.322;2023-06-22T04:31:04;4.15;;;3.75;;
26864;SDS011;40618;51.166;10.322;2023-06-22T04:33:30;5.43;;;4.22;;
26864;SDS011;40618;51.166;10.322;2023-06-22T04:35:57;4.38;;;3.65;;
26864;SDS011;40618;51.166;10.322;2023-06-22T04:38:25;3.97;;;3.58;;
26864;SDS011;40618;51.166;10.322;2023-06-22T04:40:51;4.82;;;3.58;;
26864;SDS011;40618;51.166;10.322;2023-06-22T04:43:18;5.25;;;3.75;;
26864;SDS011;40618;51.166;10.322;2023-06-22T04:45:44;4.47;;;3.70;;
26864;SDS011;40618;51.166;10.322;2023-06-22T04:48:10;3.85;;;3.33;;
26864;SDS011;40618;51.166;10.322;2023-06-22T04:50:41;4.22;;;3.63;;
26864;SDS011;40618;51.166;10.322;2023-06-22T04:53:07;5.22;;;3.83;;
26864;SDS011;40618;51.166;10.322;2023-06-22T04:55:34;4.45;;;3.60;;
26864;SDS011;40618;51.166;10.322;2023-06-22T04:58:03;5.10;;;4.03;;
26864;SDS011;40618;51.166;10.322;2023-06-22T05:00:29;4.15;;;3.72;;
26864;SDS011;40618;51.166;10.322;2023-06-22T05:02:56;3.53;;;3.13;;
26864;SDS011;40618;51.166;10.322;2023-06-22T05:05:23;4.20;;;3.67;;
26864;SDS011;40618;51.166;10.322;2023-06-22T05:07:50;3.83;;;3.40;;
26864;SDS011;40618;51.166;10.322;2023-06-22T05:10:24;3.85;;;3.45;;
26864;SDS011;40618;51.166;10.322;2023-06-22T05:12:51;3.45;;;3.15;;
26864;SDS011;40618;51.166;10.322;2023-06-22T05:15:16;4.30;;;3.80;;
26864;SDS011;40618;51.166;10.322;2023-06-22T05:17:44;4.68;;;3.85;;
26864;SDS011;40618;51.166;10.322;2023-06-22T05:20:10;4.30;;;3.90;;
26864;SDS011;40618;51.166;10.322;2023-06-22T05:22:40;3.97;;;3.58;;
26864;SDS011;40618;51.166;10.322;2023-06-22T05:25:08;4.25;;;3.80;;
26864;SDS011;40618;51.166;10.322;2023-06-22T05:27:36;5.55;;;4.30;;
26864;SDS011;40618;51.166;10.322;2023-06-22T05:30:05;6.18;;;3.85;;
26864;SDS011;40618;51.166;10.322;2023-06-22T05:32:32;3.78;;;3.47;;
26864;SDS011;40618;51.166;10.322;2023-06-22T05:34:58;4.20;;;3.80;;
26864;SDS011;40618;51.166;10.322;2023-06-22T05:37:24;4.78;;;3.97;;
26864;SDS011;40618;51.166;10.322;2023-06-22T05:39:51;5.30;;;3.78;;
26864;SDS011;40618;51.166;10.322;2023-06-22T05:42:16;3.97;;;3.60;;
26864;SDS011;40618;51.166;10.322;2023-06-22T05:44:42;4.75;;;3.95;;
26864;SDS011;40618;51.166;10.322;2023-06-22T05:47:08;3.65;;;3.35;;
26864;SDS011;40618;51.166;10.322;2023-06-22T05:49:33;4.57;;;3.72;;
26864;SDS011;40618;51.166;10.322;2023-06-22T05:52:01;4.13;;;3.72;;
26864;SDS011;40618;51.166;10.322;2023-06-22T05:54:27;4.10;;;3.60;;
26864;SDS011;40618;51.166;10.322;2023-06-22T05:56:53;5.15;;;3.90;;
26864;SDS011;40618;51.166;10.322;2023-06-22T05:59:19;3.65;;;3.35;;
26864;SDS011;40618;51.166;10.322;2023-06-22T06:01:45;4.25;;;3.85;;
26864;SDS011;40618;51.166;10.322;2023-06-22T06:04:14;4.17;;;3.50;;
26864;SDS011;40618;51.166;10.322;2023-06-22T06:06:42;5.88;;;3.72;;
26864;SDS011;40618;51.166;10.322;2023-06-22T06:09:07;4.45;;;4.05;;
26864;SDS011;40618;51.166;10.322;2023-06-22T06:11:33;4.05;;;3.65;;
26864;SDS011;40618;51.166;10.322;2023-06-22T06:13:58;4.18;;;3.75;;
26864;SDS011;40618;51.166;10.322;2023-06-22T06:16:24;4.72;;;4.03;;
26864;SDS011;40618;51.166;10.322;2023-06-22T06:18:50;4.53;;;4.13;;
26864;SDS011;40618;51.166;10.322;2023-06-22T06:21:18;4.63;;;4.15;;
26864;SDS011;40618;51.166;10.322;2023-06-22T06:23:44;4.13;;;3.72;;
26864;SDS011;40618;51.166;10.322;2023-06-22T06:26:09;5.65;;;4.40;;
26864;SDS011;40618;51.166;10.322;2023-06-22T06:28:35;5.18;;;4.68;;
26864;SDS011;40618;51.166;10.322;2023-06-22T06:31:00;4.95;;;4.30;;
26864;SDS011;40618;51.166;10.322;2023-06-22T06:33:26;9.88;;;4.80;;
26864;SDS011;40618;51.166;10.322;2023-06-22T06:35:52;5.55;;;4.47;;
26864;SDS011;40618;51.166;10.322;2023-06-22T06:38:18;5.10;;;4.47;;
26864;SDS011;40618;51.166;10.322;2023-06-22T06:40:43;6.55;;;4.93;;
26864;SDS011;40618;51.166;10.322;2023-06-22T06:43:10;5.68;;;4.47;;
26864;SDS011;40618;51.166;10.322;2023-06-22T06:45:35;5.80;;;4.18;;
26864;SDS011;40618;51.166;10.322;2023-06-22T06:48:01;4.93;;;4.10;;
26864;SDS011;40618;51.166;10.322;2023-06-22T06:50:27;7.25;;;4.30;;
26864;SDS011;40618;51.166;10.322;2023-06-22T06:52:53;4.50;;;4.10;;
26864;SDS011;40618;51.166;10.322;2023-06-22T06:55:19;4.78;;;4.18;;
26864;SDS011;40618;51.166;10.322;2023-06-22T06:57:45;5.10;;;4.60;;
26864;SDS011;40618;51.166;10.322;2023-06-22T07:00:13;4.70;;;4.20;;
26864;SDS011;40618;51.166;10.322;2023-06-22T07:02:40;4.28;;;3.88;;
26864;SDS011;40618;51.166;10.322;2023-06-22T07:05:08;7.22;;;4.82;;
26864;SDS011;40618;51.166;10.322;2023-06-22T07:07:36;5.30;;;4.80;;
26864;SDS011;40618;51.166;10.322;2023-06-22T07:10:04;5.30;;;4.70;;
26864;SDS011;40618;51.166;10.322;2023-06-22T07:12:31;5.22;;;4.38;;
26864;SDS011;40618;51.166;10.322;2023-06-22T07:15:03;5.43;;;4.72;;
26864;SDS011;40618;51.166;10.322;2023-06-22T07:17:38;5.63;;;4.72;;
26864;SDS011;40618;51.166;10.322;2023-06-22T07:20:06;5.68;;;5.10;;
26864;SDS011;40618;51.166;10.322;2023-06-22T07:22:37;6.53;;;5.22;;
26864;SDS011;40618;51.166;10.322;2023-06-22T07:25:04;6.88;;;5.53;;
26864;SDS011;40618;51.166;10.322;2023-06-22T07:27:37;6.38;;;5.70;;
26864;SDS011;40618;51.166;10.322;2023-06-22T07:30:26;7.53;;;5.60;;
26864;SDS011;40618;51.166;10.322;2023-06-22T07:32:53;6.47;;;5.88;;
26864;SDS011;40618;51.166;10.322;2023-06-22T07:35:19;6.40;;;5.80;;
26864;SDS011;40618;51.166;10.322;2023-06-22T07:37:44;6.97;;;6.32;;
26864;SDS011;40618;51.166;10.322;2023-06-22T07:40:10;7.30;;;6.13;;
26864;SDS011;40618;51.166;10.322;2023-06-22T07:42:37;7.45;;;6.43;;
26864;SDS011;40618;51.166;10.322;2023-06-22T07:45:03;7.15;;;6.45;;
26864;SDS011;40618;51.166;10.322;2023-06-22T07:47:29;7.07;;;6.45;;
26864;SDS011;40618;51.166;10.322;2023-06-22T07:49:55;7.97;;;7.18;;
26864;SDS011;40618;51.166;10.322;2023-06-22T07:52:26;8.02;;;6.80;;
26864;SDS011;40618;51.166;10.322;2023-06-22T07:54:52;6.50;;;5.90;;
26864;SDS011;40618;51.166;10.322;2023-06-22T07:57:18;9.02;;;6.97;;
26864;SDS011;40618;51.166;10.322;2023-06-22T07:59:44;7.25;;;5.65;;
26864;SDS011;40618;51.166;10.322;2023-06-22T08:02:10;9.60;;;6.85;;
26864;SDS011;40618;51.166;10.322;2023-06-22T08:04:36;8.27;;;6.85;;
26864;SDS011;40618;51.166;10.322;2023-06-22T08:07:02;8.55;;;6.88;;
26864;SDS011;40618;51.166;10.322;2023-06-22T08:09:29;7.78;;;6.72;;
26864;SDS011;40618;51.166;10.322;2023-06-22T08:11:56;7.25;;;6.50;;
26864;SDS011;40618;51.166;10.322;2023-06-22T08:14:26;10.13;;;7.38;;
26864;SDS011;40618;51.166;10.322;2023-06-22T08:16:52;7.27;;;6.57;;
26864;SDS011;40618;51.166;10.322;2023-06-22T08:19:18;10.57;;;7.75;;
26864;SDS011;40618;51.166;10.322;2023-06-22T08:21:43;9.18;;;7.35;;
26864;SDS011;40618;51.166;10.322;2023-06-22T08:24:09;8.52;;;6.82;;
26864;SDS011;40618;51.166;10.322;2023-06-22T08:26:35;10.65;;;7.05;;
26864;SDS011;40618;51.166;10.322;2023-06-22T08:29:02;8.65;;;6.57;;
26864;SDS011;40618;51.166;10.322;2023-06-22T08:31:30;9.07;;;6.38;;
26864;SDS011;40618;51.166;10.322;2023-06-22T08:33:58;8.20;;;7.35;;
26864;SDS011;40618;51.166;10.322;2023-06-22T08:36:24;8.65;;;6.32;;
26864;SDS011;40618;51.166;10.322;2023-06-22T08:38:50;7.47;;;6.65;;
26864;SDS011;40618;51.166;10.322;2023-06-22T08:41:17;7.78;;;6.55;;
26864;SDS011;40618;51.166;10.322;2023-06-22T08:43:43;8.77;;;6.65;;
26864;SDS011;40618;51.166;10.322;2023-06-22T08:46:09;9.40;;;6.72;;
26864;SDS011;40618;51.166;10.322;2023-06-22T08:48:36;9.43;;;6.70;;
26864;SDS011;40618;51.166;10.322;2023-06-22T08:51:02;7.78;;;6.40;;
26864;SDS011;40618;51.166;10.322;2023-06-22T08:53:28;8.70;;;7.03;;
26864;SDS011;40618;51.166;10.322;2023-06-22T08:55:53;8.75;;;7.05;;
26864;SDS011;40618;51.166;10.322;2023-06-22T08:58:19;7.40;;;6.68;;
26864;SDS011;40618;51.166;10.322;2023-06-22T09:00:46;9.00;;;7.60;;
26864;SDS011;40618;51.166;10.322;2023-06-22T09:03:12;8.18;;;6.50;;
26864;SDS011;40618;51.166;10.322;2023-06-22T09:05:38;7.78;;;6.85;;
26864;SDS011;40618;51.166;10.322;2023-06-22T09:08:04;7.47;;;6.75;;
26864;SDS011;40618;51.166;10.322;2023-06-22T09:10:30;8.63;;;7.03;;
26864;SDS011;40618;51.166;10.322;2023-06-22T09:12:56;9.55;;;7.28;;
26864;SDS011;40618;51.166;10.322;2023-06-22T09:15:22;8.40;;;7.10;;
26864;SDS011;40618;51.166;10.322;2023-06-22T09:17:48;9.32;;;7.43;;
26864;SDS011;40618;51.166;10.322;2023-06-22T09:20:13;7.75;;;6.80;;
26864;SDS011;40618;51.166;10.322;2023-06-22T09:22:40;8.27;;;7.47;;
26864;SDS011;40618;51.166;10.322;2023-06-22T09:25:06;8.30;;;7.35;;
26864;SDS011;40618;51.166;10.322;2023-06-22T09:27:32;7.57;;;6.78;;
26864;SDS011;40618;51.166;10.322;2023-06-22T09:29:58;10.00;;;7.20;;
26864;SDS011;40618;51.166;10.322;2023-06-22T09:32:24;7.57;;;6.43;;
26864;SDS011;40618;51.166;10.322;2023-06-22T09:34:51;7.85;;;7.10;;
26864;SDS011;40618;51.166;10.322;2023-06-22T09:37:16;8.77;;;6.63;;
26864;SDS011;40618;51.166;10.322;2023-06-22T09:39:42;7.80;;;6.57;;
26864;SDS011;40618;51.166;10.322;2023-06-22T09:42:08;8.88;;;7.53;;
26864;SDS011;40618;51.166;10.322;2023-06-22T09:44:33;7.97;;;7.18;;
26864;SDS011;40618;51.166;10.322;2023-06-22T09:46:59;8.32;;;7.50;;
26864;SDS011;40618;51.166;10.322;2023-06-22T09:49:25;9.02;;;7.07;;
26864;SDS011;40618;51.166;10.322;2023-06-22T09:51:51;9.38;;;6.55;;
26864;SDS011;40618;51.166;10.322;2023-06-22T09:54:17;7.85;;;7.00;;
26864;SDS011;40618;51.166;10.322;2023-06-22T09:56:43;8.35;;;7.03;;
26864;SDS011;40618;51.166;10.322;2023-06-22T09:59:09;6.20;;;5.60;;
26864;SDS011;40618;51.166;10.322;2023-06-22T10:01:34;7.00;;;6.30;;
26864;SDS011;40618;51.166;10.322;2023-06-22T10:04:01;6.32;;;5.72;;
26864;SDS011;40618;51.166;10.322;2023-06-22T10:06:27;6.13;;;5.53;;
26864;SDS011;40618;51.166;10.322;2023-06-22T10:08:53;6.78;;;5.40;;
26864;SDS011;40618;51.166;10.322;2023-06-22T10:11:19;6.75;;;5.80;;
26864;SDS011;40618;51.166;10.322;2023-06-22T10:13:44;7.50;;;6.30;;
26864;SDS011;40618;51.166;10.322;2023-06-22T10:16:10;7.28;;;6.68;;
26864;SDS011;40618;51.166;10.322;2023-06-22T10:18:36;6.63;;;6.03;;
26864;SDS011;40618;51.166;10.322;2023-06-22T10:21:01;7.07;;;5.88;;
26864;SDS011;40618;51.166;10.322;2023-06-22T10:23:27;7.70;;;6.47;;
26864;SDS011;40618;51.166;10.322;2023-06-22T10:25:53;6.88;;;6.13;;
26864;SDS011;40618;51.166;10.322;2023-06-22T10:28:18;9.32;;;5.45;;
26864;SDS011;40618;51.166;10.322;2023-06-22T10:30:44;7.75;;;6.03;;
26864;SDS011;40618;51.166;10.322;2023-06-22T10:33:10;6.95;;;5.22;;
26864;SDS011;40618;51.166;10.322;2023-06-22T10:35:37;7.43;;;6.72;;
26864;SDS011;40618;51.166;10.322;2023-06-22T10:38:03;7.35;;;6.28;;
26864;SDS011;40618;51.166;10.322;2023-06-22T10:40:30;6.13;;;5.63;;
26864;SDS011;40618;51.166;10.322;2023-06-22T10:42:56;7.82;;;6.97;;
26864;SDS011;40618;51.166;10.322;2023-06-22T10:45:22;6.53;;;5.43;;
26864;SDS011;40618;51.166;10.322;2023-06-22T10:47:48;6.35;;;5.72;;
26864;SDS011;40618;51.166;10.322;2023-06-22T10:50:13;6.20;;;5.68;;
26864;SDS011;40618;51.166;10.322;2023-06-22T10:52:39;7.13;;;6.30;;
26864;SDS011;40618;51.166;10.322;2023-06-22T10:55:07;6.80;;;6.10;;
26864;SDS011;40618;51.166;10.322;2023-06-22T10:57:34;7.28;;;6.32;;
26864;SDS011;40618;51.166;10.322;2023-06-22T10:59:59;6.57;;;5.90;;
26864;SDS011;40618;51.166;10.322;2023-06-22T11:02:25;5.90;;;5.40;;
26864;SDS011;40618;51.166;10.322;2023-06-22T11:04:53;7.80;;;7.03;;
26864;SDS011;40618;51.166;10.322;2023-06-22T11:07:18;6.35;;;5.75;;
26864;SDS011;40618;51.166;10.322;2023-06-22T11:09:44;6.38;;;5.72;;
26864;SDS011;40618;51.166;10.322;2023-06-22T11:12:10;6.50;;;5.90;;
26864;SDS011;40618;51.166;10.322;2023-06-22T11:14:35;7.38;;;6.20;;
26864;SDS011;40618;51.166;10.322;2023-06-22T11:17:01;7.63;;;5.80;;
26864;SDS011;40618;51.166;10.322;2023-06-22T11:19:27;6.53;;;5.93;;
26864;SDS011;40618;51.166;10.322;2023-06-22T11:21:52;6.70;;;6.05;;
26864;SDS011;40618;51.166;10.322;2023-06-22T11:24:18;6.85;;;6.15;;
26864;SDS011;40618;51.166;10.322;2023-06-22T11:26:43;7.20;;;6.43;;
26864;SDS011;40618;51.166;10.322;2023-06-22T11:29:09;6.20;;;5.70;;
26864;SDS011;40618;51.166;10.322;2023-06-22T11:31:35;6.20;;;5.65;;
26864;SDS011;40618;51.166;10.322;2023-06-22T11:34:01;6.75;;;6.15;;
26864;SDS011;40618;51.166;10.322;2023-06-22T11:36:29;7.60;;;6.20;;
26864;SDS011;40618;51.166;10.322;2023-06-22T11:38:57;6.78;;;6.10;;
26864;SDS011;40618;51.166;10.322;2023-06-22T11:41:24;7.65;;;5.45;;
26864;SDS011;40618;51.166;10.322;2023-06-22T11:43:49;6.38;;;5.78;;
26864;SDS011;40618;51.166;10.322;2023-06-22T11:46:15;6.50;;;5.80;;
26864;SDS011;40618;51.166;10.322;2023-06-22T11:48:41;6.13;;;5.53;;
26864;SDS011;40618;51.166;10.322;2023-06-22T11:51:06;6.13;;;5.57;;
26864;SDS011;40618;51.166;10.322;2023-06-22T11:53:33;6.80;;;6.20;;
26864;SDS011;40618;51.166;10.322;2023-06-22T11:56:00;5.65;;;5.05;;
26864;SDS011;40618;51.166;10.322;2023-06-22T11:58:26;7.07;;;6.00;;
26864;SDS011;40618;51.166;10.322;2023-06-22T12:00:52;5.82;;;5.22;;
26864;SDS011;40618;51.166;10.322;2023-06-22T12:03:18;6.20;;;5.60;;
26864;SDS011;40618;51.166;10.322;2023-06-22T12:05:46;6.60;;;6.03;;
26864;SDS011;40618;51.166;10.322;2023-06-22T12:08:12;5.43;;;4.93;;
26864;SDS011;40618;51.166;10.322;2023-06-22T12:10:38;5.97;;;5.28;;
26864;SDS011;40618;51.166;10.322;2023-06-22T12:13:04;5.57;;;4.82;;
26864;SDS011;40618;51.166;10.322;2023-06-22T12:15:30;5.60;;;5.10;;
26864;SDS011;40618;51.166;10.322;2023-06-22T12:17:56;5.72;;;5.22;;
26864;SDS011;40618;51.166;10.322;2023-06-22T12:20:22;6.22;;;5.72;;
26864;SDS011;40618;51.166;10.322;2023-06-22T12:22:47;5.47;;;4.90;;
26864;SDS011;40618;51.166;10.322;2023-06-22T12:25:16;6.00;;;4.97;;
26864;SDS011;40618;51.166;10.322;2023-06-22T12:27:42;5.95;;;5.00;;
26864;SDS011;40618;51.166;10.322;2023-06-22T12:30:08;6.63;;;4.97;;
26864;SDS011;40618;51.166;10.322;2023-06-22T12:32:34;5.95;;;5.45;;
26864;SDS011;40618;51.166;10.322;2023-06-22T12:35:00;6.88;;;4.97;;
26864;SDS011;40618;51.166;10.322;2023-06-22T12:37:25;6.30;;;5.15;;
26864;SDS011;40618;51.166;10.322;2023-06-22T12:39:51;6.20;;;5.60;;
26864;SDS011;40618;51.166;10.322;2023-06-22T12:42:19;6.88;;;5.72;;
26864;SDS011;40618;51.166;10.322;2023-06-22T12:44:46;5.75;;;5.13;;
26864;SDS011;40618;51.166;10.322;2023-06-22T12:47:11;5.25;;;4.78;;
26864;SDS011;40618;51.166;10.322;2023-06-22T12:49:38;5.35;;;4.85;;
26864;SDS011;40618;51.166;10.322;2023-06-22T12:52:08;6.30;;;5.53;;
26864;SDS011;40618;51.166;10.322;2023-06-22T12:54:36;4.93;;;4.53;;
26864;SDS011;40618;51.166;10.322;2023-06-22T12:57:02;6.28;;;4.95;;
26864;SDS011;40618;51.166;10.322;2023-06-22T12:59:27;6.07;;;4.97;;
26864;SDS011;40618;51.166;10.322;2023-06-22T13:01:53;5.57;;;5.03;;
26864;SDS011;40618;51.166;10.322;2023-06-22T13:04:19;5.95;;;4.95;;
26864;SDS011;40618;51.166;10.322;2023-06-22T13:06:46;7.85;;;5.03;;
26864;SDS011;40618;51.166;10.322;2023-06-22T13:09:13;5.20;;;4.75;;
26864;SDS011;40618;51.166;10.322;2023-06-22T13:11:40;5.60;;;5.10;;
26864;SDS011;40618;51.166;10.322;2023-06-22T13:14:06;7.63;;;5.30;;
26864;SDS011;40618;51.166;10.322;2023-06-22T13:16:32;7.03;;;5.15;;
26864;SDS011;40618;51.166;10.322;2023-06-22T13:18:57;6.00;;;5.30;;
26864;SDS011;40618;51.166;10.322;2023-06-22T13:21:23;5.40;;;4.90;;
26864;SDS011;40618;51.166;10.322;2023-06-22T13:23:48;5.22;;;4.68;;
26864;SDS011;40618;51.166;10.322;2023-06-22T13:26:14;6.00;;;5.20;;
26864;SDS011;40618;51.166;10.322;2023-06-22T13:28:40;5.50;;;5.00;;
26864;SDS011;40618;51.166;10.322;2023-06-22T13:31:05;5.57;;;4.97;;
26864;SDS011;40618;51.166;10.322;2023-06-22T13:33:31;8.05;;;5.10;;
26864;SDS011;40618;51.166;10.322;2023-06-22T13:35:56;5.35;;;4.85;;
26864;SDS011;40618;51.166;10.322;2023-06-22T13:38:22;5.15;;;4.70;;
26864;SDS011;40618;51.166;10.322;2023-06-22T13:40:48;6.45;;;5.13;;
26864;SDS011;40618;51.166;10.322;2023-06-22T13:43:15;4.95;;;4.45;;
26864;SDS011;40618;51.166;10.322;2023-06-22T13:45:41;5.65;;;4.75;;
26864;SDS011;40618;51.166;10.322;2023-06-22T13:48:08;5.30;;;4.80;;
26864;SDS011;40618;51.166;10.322;2023-06-22T13:50:34;5.13;;;4.65;;
26864;SDS011;40618;51.166;10.322;2023-06-22T13:53:00;6.30;;;4.57;;
26864;SDS011;40618;51.166;10.322;2023-06-22T13:55:26;5.20;;;4.70;;
26864;SDS011;40618;51.166;10.322;2023-06-22T13:57:51;5.78;;;5.05;;
26864;SDS011;40618;51.166;10.322;2023-06-22T14:00:17;6.22;;;5.10;;
26864;SDS011;40618;51.166;10.322;2023-06-22T14:02:44;8.25;;;5.40;;
26864;SDS011;40618;51.166;10.322;2023-06-22T14:05:09;8.88;;;5.28;;
26864;SDS011;40618;51.166;10.322;2023-06-22T14:07:36;5.90;;;4.88;;
26864;SDS011;40618;51.166;10.322;2023-06-22T14:10:02;6.60;;;4.95;;
26864;SDS011;40618;51.166;10.322;2023-06-22T14:12:29;5.20;;;4.70;;
26864;SDS011;40618;51.166;10.322;2023-06-22T14:14:54;4.97;;;4.47;;
26864;SDS011;40618;51.166;10.322;2023-06-22T14:17:20;6.82;;;4.63;;
26864;SDS011;40618;51.166;10.322;2023-06-22T14:19:51;5.30;;;4.82;;
26864;SDS011;40618;51.166;10.322;2023-06-22T14:22:20;5.63;;;5.13;;
26864;SDS011;40618;51.166;10.322;2023-06-22T14:27:13;5.30;;;4.80;;
26864;SDS011;40618;51.166;10.322;2023-06-22T14:29:39;6.88;;;5.43;;
26864;SDS011;40618;51.166;10.322;2023-06-22T14:32:05;7.43;;;5.18;;
26864;SDS011;40618;51.166;10.322;2023-06-22T14:34:32;5.65;;;5.03;;
26864;SDS011;40618;51.166;10.322;2023-06-22T14:37:01;5.55;;;4.75;;
26864;SDS011;40618;51.166;10.322;2023-06-22T14:39:27;5.43;;;4.72;;
26864;SDS011;40618;51.166;10.322;2023-06-22T14:41:53;7.57;;;5.30;;